createdAt,value
2018-08-10T00:01:11.310Z,8.50
2018-08-10T00:03:39.788Z,6.90
2018-08-10T00:06:08.284Z,5.63
2018-08-10T00:08:36.781Z,5.20
2018-08-10T00:11:05.265Z,4.47
2018-08-10T00:13:33.733Z,5.13
2018-08-10T00:16:02.167Z,5.00
2018-08-10T00:18:30.646Z,4.10
2018-08-10T00:20:59.521Z,4.73
2018-08-10T00:23:28.012Z,6.03
2018-08-10T00:25:56.488Z,5.70
2018-08-10T00:28:25.012Z,5.73
2018-08-10T00:30:53.492Z,7.03
2018-08-10T00:33:21.924Z,4.13
2018-08-10T00:35:50.432Z,4.40
2018-08-10T00:38:18.929Z,7.93
2018-08-10T00:40:47.396Z,4.53
2018-08-10T00:43:15.868Z,6.37
2018-08-10T00:45:44.317Z,4.97
2018-08-10T00:48:12.784Z,8.90
2018-08-10T00:50:41.652Z,7.53
2018-08-10T00:53:10.137Z,9.97
2018-08-10T00:55:38.598Z,7.07
2018-08-10T00:58:07.125Z,9.97
2018-08-10T01:00:35.586Z,5.73
2018-08-10T01:03:04.125Z,7.50
2018-08-10T01:05:32.593Z,4.97
2018-08-10T01:08:01.145Z,4.33
2018-08-10T01:10:29.597Z,4.90
2018-08-10T01:12:58.077Z,7.93
2018-08-10T01:15:26.522Z,5.77
2018-08-10T01:17:54.976Z,6.87
2018-08-10T01:20:24.093Z,7.07
2018-08-10T01:22:57.948Z,5.40
2018-08-10T01:25:27.514Z,4.70
2018-08-10T01:27:58.612Z,4.47
2018-08-10T01:30:28.553Z,5.10
2018-08-10T01:32:57.645Z,4.73
2018-08-10T01:35:26.755Z,6.40
2018-08-10T01:37:56.053Z,5.40
2018-08-10T01:40:24.885Z,6.20
2018-08-10T01:42:53.384Z,6.10
2018-08-10T01:45:21.916Z,6.87
2018-08-10T01:47:50.419Z,3.67
2018-08-10T01:50:18.874Z,6.50
2018-08-10T01:52:47.340Z,4.37
2018-08-10T01:55:15.824Z,5.03
2018-08-10T01:57:44.268Z,4.57
2018-08-10T02:00:12.896Z,5.03
2018-08-10T02:02:41.332Z,3.97
2018-08-10T02:05:12.617Z,4.07
2018-08-10T02:07:41.497Z,5.10
2018-08-10T02:10:16.121Z,5.37
2018-08-10T02:12:45.512Z,4.83
2018-08-10T02:15:17.076Z,7.60
2018-08-10T02:17:45.628Z,6.27
2018-08-10T02:20:15.573Z,5.10
2018-08-10T02:22:44.800Z,5.63
2018-08-10T02:25:14.791Z,8.33
2018-08-10T02:27:44.176Z,7.40
2018-08-10T02:30:14.361Z,5.93
2018-08-10T02:32:43.589Z,7.63
2018-08-10T02:35:12.164Z,6.33
2018-08-10T02:37:41.061Z,8.50
2018-08-10T02:40:12.572Z,7.23
2018-08-10T02:42:41.333Z,8.30
2018-08-10T02:45:09.809Z,8.13
2018-08-10T02:47:38.292Z,6.60
2018-08-10T02:50:06.713Z,7.47
2018-08-10T02:52:35.278Z,8.63
2018-08-10T02:55:04.347Z,6.17
2018-08-10T02:57:32.806Z,6.90
2018-08-10T03:00:01.281Z,6.97
2018-08-10T03:02:29.766Z,7.50
2018-08-10T03:04:58.201Z,8.30
2018-08-10T03:07:26.675Z,5.47
2018-08-10T03:09:55.132Z,5.47
2018-08-10T03:12:23.588Z,7.53
2018-08-10T03:14:52.029Z,6.27
2018-08-10T03:17:20.492Z,8.30
2018-08-10T03:19:48.919Z,6.27
2018-08-10T03:22:17.472Z,8.27
2018-08-10T03:24:46.212Z,6.87
2018-08-10T03:27:14.684Z,9.40
2018-08-10T03:29:43.132Z,10.17
2018-08-10T03:32:11.575Z,5.37
2018-08-10T03:34:40.001Z,6.63
2018-08-10T03:37:08.466Z,9.77
2018-08-10T03:39:36.904Z,8.60
2018-08-10T03:42:05.390Z,7.67
2018-08-10T03:44:33.852Z,6.63
2018-08-10T03:47:02.304Z,9.90
2018-08-10T03:49:30.801Z,9.07
2018-08-10T03:51:59.260Z,9.37
2018-08-10T03:54:27.792Z,7.27
2018-08-10T03:56:56.228Z,7.27
2018-08-10T03:59:24.696Z,9.50
2018-08-10T04:01:53.130Z,9.40
2018-08-10T04:04:21.590Z,13.50
2018-08-10T04:06:50.155Z,10.13
2018-08-10T04:09:18.616Z,8.30
2018-08-10T04:11:47.084Z,7.07
2018-08-10T04:14:15.540Z,7.70
2018-08-10T04:16:44.484Z,9.13
2018-08-10T04:19:13.050Z,8.27
2018-08-10T04:21:41.480Z,9.17
2018-08-10T04:24:09.941Z,7.17
2018-08-10T04:26:38.388Z,10.43
2018-08-10T04:29:06.921Z,11.27
2018-08-10T04:31:35.378Z,5.03
2018-08-10T04:34:03.896Z,10.63
2018-08-10T04:36:32.970Z,10.80
2018-08-10T04:39:01.545Z,8.13
2018-08-10T04:41:31.982Z,8.43
2018-08-10T04:44:00.453Z,8.07
2018-08-10T04:46:28.880Z,14.97
2018-08-10T04:48:57.317Z,10.90
2018-08-10T04:51:25.769Z,11.13
2018-08-10T04:53:54.278Z,10.23
2018-08-10T04:56:22.725Z,5.93
2018-08-10T04:58:51.176Z,11.40
2018-08-10T05:01:19.665Z,10.97
2018-08-10T05:03:48.188Z,5.77
2018-08-10T05:06:16.588Z,8.20
2018-08-10T05:08:45.120Z,8.83
2018-08-10T05:11:13.632Z,8.10
2018-08-10T05:13:42.042Z,7.07
2018-08-10T05:16:10.497Z,6.07
2018-08-10T05:18:38.959Z,9.13
2018-08-10T05:21:07.709Z,8.67
2018-08-10T05:23:36.552Z,18.77
2018-08-10T05:26:05.003Z,7.43
2018-08-10T05:28:33.446Z,9.13
2018-08-10T05:31:01.888Z,5.17
2018-08-10T05:33:30.409Z,7.53
2018-08-10T05:35:58.891Z,6.50
2018-08-10T05:38:27.357Z,10.37
2018-08-10T05:40:55.937Z,10.97
2018-08-10T05:43:24.405Z,8.83
2018-08-10T05:45:54.007Z,3.93
2018-08-10T05:48:23.593Z,8.23
2018-08-10T05:50:52.065Z,7.03
2018-08-10T05:53:20.565Z,7.37
2018-08-10T05:55:49.021Z,8.60
2018-08-10T05:58:17.461Z,5.77
2018-08-10T06:00:45.935Z,4.97
2018-08-10T06:03:14.441Z,9.10
2018-08-10T06:05:43.628Z,8.00
2018-08-10T06:08:12.079Z,8.20
2018-08-10T06:10:40.509Z,9.00
2018-08-10T06:13:08.974Z,6.70
2018-08-10T06:15:37.448Z,5.13
2018-08-10T06:18:05.936Z,6.63
2018-08-10T06:20:34.381Z,5.90
2018-08-10T06:23:02.825Z,10.23
2018-08-10T06:25:31.254Z,10.33
2018-08-10T06:27:59.707Z,5.77
2018-08-10T06:30:28.170Z,8.23
2018-08-10T06:32:56.616Z,6.90
2018-08-10T06:35:25.065Z,6.43
2018-08-10T06:37:53.567Z,9.00
2018-08-10T06:40:22.061Z,5.30
2018-08-10T06:42:50.557Z,6.17
2018-08-10T06:45:19.114Z,5.27
2018-08-10T06:47:47.452Z,6.60
2018-08-10T06:50:15.980Z,8.93
2018-08-10T06:52:44.495Z,10.70
2018-08-10T06:55:13.325Z,5.47
2018-08-10T06:57:41.778Z,6.53
2018-08-10T07:00:10.288Z,8.37
2018-08-10T07:02:38.748Z,6.80
2018-08-10T07:05:07.752Z,7.23
2018-08-10T07:07:36.207Z,6.77
2018-08-10T07:10:06.005Z,7.20
2018-08-10T07:12:34.448Z,7.23
2018-08-10T07:15:03.176Z,6.63
2018-08-10T07:17:31.680Z,7.63
2018-08-10T07:20:00.104Z,5.30
2018-08-10T07:22:28.591Z,7.93
2018-08-10T07:24:57.123Z,8.47
2018-08-10T07:27:25.575Z,6.37
2018-08-10T07:29:54.001Z,7.47
2018-08-10T07:32:22.474Z,4.13
2018-08-10T07:34:51.038Z,7.13
2018-08-10T07:37:19.473Z,4.73
2018-08-10T07:39:47.895Z,5.67
2018-08-10T07:42:16.336Z,6.67
2018-08-10T07:44:44.784Z,5.70
2018-08-10T07:47:13.244Z,6.80
2018-08-10T07:49:41.705Z,4.47
2018-08-10T07:52:10.203Z,9.03
2018-08-10T07:54:38.610Z,8.33
2018-08-10T07:57:07.048Z,3.80
2018-08-10T07:59:35.516Z,6.47
2018-08-10T08:02:04.569Z,8.13
2018-08-10T08:04:33.076Z,5.33
2018-08-10T08:07:01.604Z,4.13
2018-08-10T08:09:30.090Z,6.70
2018-08-10T08:11:58.548Z,5.07
2018-08-10T08:14:27.074Z,5.33
2018-08-10T08:16:55.580Z,5.00
2018-08-10T08:19:24.527Z,7.53
2018-08-10T08:22:18.257Z,7.90
2018-08-10T08:24:47.518Z,5.97
2018-08-10T08:27:17.133Z,4.33
2018-08-10T08:29:45.661Z,6.93
2018-08-10T08:32:14.173Z,4.03
2018-08-10T08:34:42.705Z,5.57
2018-08-10T08:37:11.792Z,8.60
2018-08-10T08:40:49.416Z,5.60
2018-08-10T08:44:34.154Z,4.53
2018-08-10T08:47:04.184Z,5.33
2018-08-10T08:49:32.857Z,5.40
2018-08-10T08:52:01.427Z,4.93
2018-08-10T08:55:38.741Z,3.77
2018-08-10T08:58:07.937Z,6.57
2018-08-10T09:00:36.625Z,5.43
2018-08-10T09:03:05.970Z,5.20
2018-08-10T09:05:34.492Z,3.73
2018-08-10T09:08:02.985Z,3.63
2018-08-10T09:10:31.488Z,3.33
2018-08-10T09:13:00.464Z,5.17
2018-08-10T09:15:28.941Z,5.67
2018-08-10T09:17:57.452Z,3.53
2018-08-10T09:20:25.892Z,1.93
2018-08-10T09:22:54.503Z,4.90
2018-08-10T09:25:23.006Z,5.03
2018-08-10T09:27:51.496Z,3.93
2018-08-10T09:30:20.452Z,3.63
2018-08-10T09:32:48.920Z,3.27
2018-08-10T09:35:17.432Z,3.77
2018-08-10T09:37:45.965Z,2.27
2018-08-10T09:40:18.945Z,1.10
2018-08-10T09:42:47.860Z,4.00
2018-08-10T09:45:17.214Z,3.93
2018-08-10T09:47:47.393Z,4.70
2018-08-10T09:50:16.769Z,2.63
2018-08-10T09:53:02.588Z,2.83
2018-08-10T09:55:34.634Z,2.37
2018-08-10T09:58:04.655Z,2.77
2018-08-10T10:00:38.513Z,5.83
2018-08-10T10:03:13.728Z,1.30
2018-08-10T10:05:42.860Z,3.00
2018-08-10T10:08:11.460Z,3.33
2018-08-10T10:10:39.976Z,4.93
2018-08-10T10:13:09.133Z,3.50
2018-08-10T10:15:38.107Z,4.13
2018-08-10T10:18:08.736Z,3.13
2018-08-10T10:20:37.337Z,3.07
2018-08-10T10:23:06.392Z,1.90
2018-08-10T10:25:34.884Z,3.50
2018-08-10T10:28:03.465Z,2.47
2018-08-10T10:30:32.024Z,2.73
2018-08-10T10:33:00.575Z,3.17
2018-08-10T10:35:29.623Z,2.30
2018-08-10T10:37:58.172Z,3.00
2018-08-10T10:40:26.717Z,2.63
2018-08-10T10:42:55.205Z,3.47
2018-08-10T10:45:23.704Z,4.03
2018-08-10T10:47:52.176Z,3.57
2018-08-10T10:50:20.673Z,3.87
2018-08-10T10:52:49.157Z,0.90
2018-08-10T10:55:17.672Z,2.00
2018-08-10T10:57:46.180Z,2.87
2018-08-10T11:00:17.464Z,2.07
2018-08-10T11:02:46.490Z,2.80
2018-08-10T11:05:15.045Z,4.20
2018-08-10T11:07:43.948Z,1.57
2018-08-10T11:10:13.817Z,1.37
2018-08-10T11:12:42.318Z,2.83
2018-08-10T11:15:11.692Z,2.40
2018-08-10T11:17:40.213Z,2.33
2018-08-10T11:20:10.248Z,8.10
2018-08-10T11:22:39.801Z,2.07
2018-08-10T11:25:10.564Z,2.23
2018-08-10T11:27:39.357Z,1.47
2018-08-10T11:30:09.364Z,4.60
2018-08-10T11:32:38.108Z,1.47
2018-08-10T11:35:07.568Z,4.17
2018-08-10T11:37:36.229Z,4.80
2018-08-10T11:40:08.496Z,1.90
2018-08-10T11:42:37.022Z,2.60
2018-08-10T11:45:08.459Z,1.67
2018-08-10T11:47:36.925Z,2.07
2018-08-10T11:50:05.718Z,3.13
2018-08-10T11:52:34.495Z,5.67
2018-08-10T11:55:02.846Z,4.37
2018-08-10T11:57:31.420Z,3.53
2018-08-10T11:59:59.943Z,3.20
2018-08-10T12:02:28.485Z,2.70
2018-08-10T12:04:56.933Z,2.23
2018-08-10T12:07:25.432Z,1.80
2018-08-10T12:09:53.869Z,2.57
2018-08-10T12:12:22.349Z,1.63
2018-08-10T12:14:50.904Z,2.03
2018-08-10T12:17:19.424Z,2.23
2018-08-10T12:19:48.113Z,2.20
2018-08-10T12:22:16.796Z,1.73
2018-08-10T12:24:45.286Z,1.30
2018-08-10T12:27:13.748Z,1.87
2018-08-10T12:29:42.205Z,2.57
2018-08-10T12:32:10.836Z,1.33
2018-08-10T12:34:39.305Z,3.03
2018-08-10T12:37:08.228Z,0.60
2018-08-10T12:39:36.676Z,1.17
2018-08-10T12:42:05.214Z,1.03
2018-08-10T12:44:33.689Z,1.93
2018-08-10T12:47:02.194Z,1.33
2018-08-10T12:49:30.694Z,1.37
2018-08-10T12:51:59.196Z,1.13
2018-08-10T12:54:27.713Z,3.47
2018-08-10T12:56:56.233Z,1.00
2018-08-10T12:59:24.761Z,2.07
2018-08-10T13:01:53.216Z,3.40
2018-08-10T13:04:21.740Z,0.97
2018-08-10T13:06:50.249Z,3.33
2018-08-10T13:09:18.796Z,1.40
2018-08-10T13:11:47.324Z,1.43
2018-08-10T13:14:15.788Z,3.17
2018-08-10T13:16:44.290Z,1.17
2018-08-10T13:19:12.753Z,2.47
2018-08-10T13:21:41.237Z,1.57
2018-08-10T13:24:09.736Z,3.00
2018-08-10T13:26:38.209Z,3.17
2018-08-10T13:29:06.729Z,2.63
2018-08-10T13:31:35.302Z,2.43
2018-08-10T13:34:03.870Z,1.87
2018-08-10T13:36:32.382Z,1.90
2018-08-10T13:39:00.856Z,2.53
2018-08-10T13:41:29.685Z,3.60
2018-08-10T13:43:58.187Z,1.33
2018-08-10T13:46:29.279Z,1.43
2018-08-10T13:48:57.836Z,3.17
2018-08-10T13:51:26.325Z,1.23
2018-08-10T13:53:54.839Z,1.33
2018-08-10T13:56:25.632Z,1.53
2018-08-10T13:58:54.161Z,1.83
2018-08-10T14:01:22.610Z,1.53
2018-08-10T14:03:51.098Z,3.23
2018-08-10T14:06:19.852Z,3.73
2018-08-10T14:08:48.237Z,2.10
2018-08-10T14:11:16.838Z,3.97
2018-08-10T14:13:45.356Z,5.63
2018-08-10T14:16:13.881Z,2.10
2018-08-10T14:18:42.509Z,1.10
2018-08-10T14:21:11.174Z,2.50
2018-08-10T14:23:39.721Z,1.03
2018-08-10T14:26:08.252Z,3.33
2018-08-10T14:28:36.736Z,2.07
2018-08-10T14:31:05.369Z,0.63
2018-08-10T14:33:33.984Z,2.20
2018-08-10T14:36:02.564Z,5.67
2018-08-10T14:38:31.131Z,1.03
2018-08-10T14:40:59.823Z,2.17
2018-08-10T14:43:28.659Z,2.30
2018-08-10T14:45:57.932Z,1.67
2018-08-10T14:48:26.367Z,1.40
2018-08-10T14:50:54.865Z,1.40
2018-08-10T14:53:23.367Z,1.10
2018-08-10T14:55:51.875Z,2.80
2018-08-10T14:58:20.374Z,5.67
2018-08-10T15:00:48.923Z,4.20
2018-08-10T15:03:17.443Z,2.60
2018-08-10T15:05:45.900Z,2.00
2018-08-10T15:08:14.400Z,2.27
2018-08-10T15:10:42.912Z,1.73
2018-08-10T15:13:11.518Z,1.63
2018-08-10T15:15:40.030Z,1.27
2018-08-10T15:18:09.153Z,1.20
2018-08-10T15:20:37.708Z,1.30
2018-08-10T15:23:06.226Z,1.57
2018-08-10T15:25:35.333Z,2.70
2018-08-10T15:28:03.836Z,1.43
2018-08-10T15:30:32.320Z,0.73
2018-08-10T15:33:00.792Z,2.13
2018-08-10T15:35:30.421Z,4.77
2018-08-10T15:37:58.924Z,2.53
2018-08-10T15:40:27.416Z,2.40
2018-08-10T15:42:56.382Z,2.57
2018-08-10T15:45:24.914Z,1.70
2018-08-10T15:47:53.435Z,1.37
2018-08-10T15:50:21.963Z,1.10
2018-08-10T15:52:50.504Z,1.77
2018-08-10T15:55:18.965Z,2.27
2018-08-10T15:57:47.722Z,4.50
2018-08-10T16:00:21.400Z,5.10
2018-08-10T16:02:51.276Z,2.50
2018-08-10T16:05:19.758Z,2.87
2018-08-10T16:07:48.338Z,1.33
2018-08-10T16:10:16.826Z,2.13
2018-08-10T16:12:45.377Z,1.60
2018-08-10T16:15:15.174Z,4.07
2018-08-10T16:17:43.758Z,1.43
2018-08-10T16:20:14.328Z,1.43
2018-08-10T16:22:42.812Z,2.07
2018-08-10T16:25:12.165Z,3.57
2018-08-10T16:27:41.761Z,2.63
2018-08-10T16:30:12.212Z,1.60
2018-08-10T16:32:41.433Z,2.40
2018-08-10T16:35:11.236Z,4.07
2018-08-10T16:37:40.927Z,1.97
2018-08-10T16:40:10.656Z,1.33
2018-08-10T16:42:40.453Z,1.13
2018-08-10T16:45:09.643Z,2.97
2018-08-10T16:47:38.966Z,1.10
2018-08-10T16:50:09.977Z,1.87
2018-08-10T16:52:38.888Z,2.10
2018-08-10T16:55:09.999Z,2.73
2018-08-10T16:57:39.105Z,3.30
2018-08-10T17:00:15.607Z,0.80
2018-08-10T17:02:44.684Z,2.17
2018-08-10T17:05:13.180Z,2.53
2018-08-10T17:07:42.485Z,3.93
2018-08-10T17:10:11.832Z,3.23
2018-08-10T17:12:41.566Z,2.80
2018-08-10T17:15:12.965Z,3.03
2018-08-10T17:17:42.428Z,2.30
2018-08-10T17:20:11.388Z,2.00
2018-08-10T17:22:40.299Z,3.20
2018-08-10T17:25:10.154Z,2.03
2018-08-10T17:27:38.803Z,0.77
2018-08-10T17:30:09.918Z,1.97
2018-08-10T17:32:39.589Z,3.57
2018-08-10T17:35:09.300Z,3.63
2018-08-10T17:37:37.804Z,3.83
2018-08-10T17:40:06.905Z,1.50
2018-08-10T17:42:35.384Z,1.03
2018-08-10T17:45:04.744Z,2.93
2018-08-10T17:47:33.232Z,2.50
2018-08-10T17:50:01.716Z,1.47
2018-08-10T17:52:30.919Z,4.33
2018-08-10T17:54:59.385Z,2.40
2018-08-10T17:57:27.916Z,0.90
2018-08-10T17:59:56.420Z,3.07
2018-08-10T18:02:24.921Z,1.60
2018-08-10T18:04:53.396Z,1.93
2018-08-10T18:07:21.880Z,1.00
2018-08-10T18:09:50.808Z,4.30
2018-08-10T18:12:19.270Z,3.00
2018-08-10T18:14:47.769Z,4.00
2018-08-10T18:17:16.248Z,3.03
2018-08-10T18:19:44.785Z,2.10
2018-08-10T18:22:13.254Z,1.33
2018-08-10T18:24:41.734Z,2.00
2018-08-10T18:27:10.317Z,2.00
2018-08-10T18:29:38.800Z,3.03
2018-08-10T18:32:07.331Z,1.70
2018-08-10T18:34:35.955Z,2.93
2018-08-10T18:37:04.749Z,2.63
2018-08-10T18:39:33.250Z,2.57
2018-08-10T18:42:01.781Z,2.13
2018-08-10T18:44:30.291Z,2.03
2018-08-10T18:46:58.781Z,3.37
2018-08-10T18:49:27.220Z,2.50
2018-08-10T18:51:55.741Z,1.20
2018-08-10T18:54:24.196Z,2.87
2018-08-10T18:56:52.717Z,2.10
2018-08-10T18:59:21.177Z,3.03
2018-08-10T19:01:49.737Z,4.03
2018-08-10T19:04:18.221Z,2.83
2018-08-10T19:06:46.752Z,2.77
2018-08-10T19:09:15.204Z,1.73
2018-08-10T19:11:43.736Z,2.67
2018-08-10T19:14:12.219Z,2.60
2018-08-10T19:16:40.716Z,2.13
2018-08-10T19:19:09.588Z,2.80
2018-08-10T19:21:38.072Z,2.07
2018-08-10T19:24:06.538Z,3.20
2018-08-10T19:26:35.104Z,0.90
2018-08-10T19:29:03.645Z,4.47
2018-08-10T19:31:33.072Z,3.97
2018-08-10T19:34:03.793Z,5.70
2018-08-10T19:36:32.396Z,4.03
2018-08-10T19:39:00.859Z,6.87
2018-08-10T19:41:31.787Z,4.20
2018-08-10T19:44:00.312Z,6.80
2018-08-10T19:46:28.801Z,7.37
2018-08-10T19:48:57.296Z,4.53
2018-08-10T19:51:25.829Z,4.17
2018-08-10T19:53:55.339Z,5.67
2018-08-10T19:56:23.876Z,2.07
2018-08-10T19:58:52.374Z,5.33
2018-08-10T20:01:20.928Z,3.53
2018-08-10T20:03:49.417Z,6.13
2018-08-10T20:06:19.543Z,8.17
2018-08-10T20:08:47.988Z,4.83
2018-08-10T20:11:16.500Z,3.13
2018-08-10T20:13:44.987Z,4.60
2018-08-10T20:16:13.578Z,4.80
2018-08-10T20:18:42.080Z,3.00
2018-08-10T20:21:10.570Z,2.67
2018-08-10T20:23:39.116Z,2.20
2018-08-10T20:26:07.553Z,2.53
2018-08-10T20:28:36.129Z,1.27
2018-08-10T20:31:04.582Z,3.30
2018-08-10T20:33:33.137Z,2.43
2018-08-10T20:36:01.680Z,4.73
2018-08-10T20:38:30.144Z,1.93
2018-08-10T20:40:59.338Z,1.60
2018-08-10T20:43:27.769Z,4.33
2018-08-10T20:45:56.236Z,1.83
2018-08-10T20:48:24.756Z,1.70
2018-08-10T20:50:53.952Z,3.03
2018-08-10T20:53:22.418Z,1.77
2018-08-10T20:55:51.001Z,0.70
2018-08-10T20:58:19.516Z,0.83
2018-08-10T21:00:48.782Z,2.47
2018-08-10T21:03:17.672Z,3.13
2018-08-10T21:05:46.177Z,1.57
2018-08-10T21:08:14.644Z,2.80
2018-08-10T21:10:44.812Z,3.17
2018-08-10T21:13:13.308Z,4.13
2018-08-10T21:15:41.791Z,3.83
2018-08-10T21:18:10.277Z,2.03
2018-08-10T21:20:38.841Z,2.10
2018-08-10T21:23:07.380Z,4.53
2018-08-10T21:25:35.824Z,4.30
2018-08-10T21:28:04.404Z,1.63
2018-08-10T21:30:32.852Z,4.27
2018-08-10T21:33:01.324Z,1.37
2018-08-10T21:35:29.816Z,2.03
2018-08-10T21:37:58.360Z,1.90
2018-08-10T21:40:26.780Z,2.60
2018-08-10T21:42:55.293Z,1.73
2018-08-10T21:45:23.757Z,4.17
2018-08-10T21:47:52.181Z,3.30
2018-08-10T21:50:20.644Z,1.07
2018-08-10T21:52:49.133Z,1.33
2018-08-10T21:55:17.637Z,1.67
2018-08-10T21:57:46.076Z,1.37
2018-08-10T22:00:28.049Z,0.87
2018-08-10T22:02:56.520Z,4.13
2018-08-10T22:05:24.968Z,3.00
2018-08-10T22:07:53.392Z,2.83
2018-08-10T22:10:21.860Z,3.20
2018-08-10T22:12:50.329Z,1.37
2018-08-10T22:15:25.107Z,2.73
2018-08-10T22:17:59.488Z,1.37
2018-08-10T22:20:27.948Z,2.53
2018-08-10T22:22:56.415Z,1.40
2018-08-10T22:25:24.845Z,1.80
2018-08-10T22:27:53.464Z,2.33
2018-08-10T22:30:21.940Z,1.47
2018-08-10T22:32:50.436Z,1.33
2018-08-10T22:35:18.909Z,1.27
2018-08-10T22:37:47.345Z,1.40
2018-08-10T22:40:15.783Z,1.40
2018-08-10T22:42:44.256Z,2.67
2018-08-10T22:45:12.687Z,2.30
2018-08-10T22:47:41.160Z,2.13
2018-08-10T22:50:09.973Z,0.80
2018-08-10T22:52:38.440Z,2.77
2018-08-10T22:55:07.233Z,1.80
2018-08-10T22:57:35.725Z,3.83
2018-08-10T23:00:04.788Z,3.70
2018-08-10T23:02:33.521Z,2.13
2018-08-10T23:05:01.984Z,1.20
2018-08-10T23:07:30.427Z,2.80
2018-08-10T23:09:58.888Z,1.37
2018-08-10T23:12:27.361Z,1.33
2018-08-10T23:14:55.810Z,1.67
2018-08-10T23:17:24.265Z,1.57
2018-08-10T23:19:52.713Z,2.63
2018-08-10T23:22:21.860Z,3.80
2018-08-10T23:24:50.305Z,2.97
2018-08-10T23:27:19.324Z,1.23
2018-08-10T23:29:47.836Z,2.23
2018-08-10T23:32:16.341Z,1.53
2018-08-10T23:34:44.793Z,1.50
2018-08-10T23:37:13.292Z,4.00
2018-08-10T23:39:41.728Z,1.63
2018-08-10T23:42:10.216Z,1.20
2018-08-10T23:44:38.668Z,1.07
2018-08-10T23:47:07.140Z,2.30
2018-08-10T23:49:35.604Z,0.97
2018-08-10T23:52:04.212Z,3.33
2018-08-10T23:54:32.660Z,1.03
2018-08-10T23:57:01.113Z,2.40
2018-08-10T23:59:29.560Z,1.87
